Time;durP1;ratioP1;P1;durP2;ratioP2;P2;SDS_P1;SDS_P2;PMS_P1;PMS_P2;Temp;Humidity;BMP_temperature;BMP_pressure;BME280_temperature;BME280_humidity;BME280_pressure;Samples;Min_cycle;Max_cycle;Signal;HPM_P1;HPM_P2
2023/12/29 00:01:57;;;;;;;14.65;1.02;;;9.60;99.90;;;;;;5022653;28;20045;-71
2023/12/29 00:04:22;;;;;;;11.27;1.77;;;9.70;99.90;;;;;;5024066;28;20056;-71
2023/12/29 00:06:48;;;;;;;20.38;2.63;;;9.70;99.90;;;;;;5007808;28;20051;-70
2023/12/29 00:09:19;;;;;;;21.27;2.20;;;9.80;99.90;;;;;;5008076;28;20516;-71
2023/12/29 00:11:49;;;;;;;13.45;2.47;;;9.80;99.90;;;;;;5033356;28;20091;-71
2023/12/29 00:14:15;;;;;;;12.15;1.83;;;9.80;99.90;;;;;;5031214;28;20930;-71
2023/12/29 00:16:41;;;;;;;8.65;1.95;;;9.80;99.90;;;;;;5025756;28;20049;-71
2023/12/29 00:19:07;;;;;;;4.72;1.17;;;9.80;99.90;;;;;;5031903;28;20059;-71
2023/12/29 00:21:33;;;;;;;9.65;1.23;;;9.90;99.90;;;;;;5031675;28;20048;-70
2023/12/29 00:23:58;;;;;;;6.28;1.25;;;9.90;99.90;;;;;;5026977;28;20052;-71
2023/12/29 00:26:24;;;;;;;7.80;1.30;;;9.90;99.90;;;;;;5024143;28;20750;-71
2023/12/29 00:28:51;;;;;;;9.88;1.88;;;9.90;99.90;;;;;;5014001;28;20045;-71
2023/12/29 00:31:17;;;;;;;16.77;1.90;;;10.00;99.90;;;;;;5024713;28;20045;-71
2023/12/29 00:33:43;;;;;;;16.10;1.75;;;10.00;99.90;;;;;;5025766;28;20240;-71
2023/12/29 00:36:15;;;;;;;11.30;2.22;;;10.00;99.90;;;;;;5023666;28;20060;-71
2023/12/29 00:38:41;;;;;;;17.35;1.95;;;10.00;99.90;;;;;;5027577;28;20063;-71
2023/12/29 00:41:07;;;;;;;7.63;1.77;;;10.10;99.90;;;;;;5035811;28;20049;-70
2023/12/29 00:43:33;;;;;;;9.45;1.73;;;10.10;99.90;;;;;;5010033;28;20095;-70
2023/12/29 00:46:00;;;;;;;9.90;1.35;;;10.00;99.90;;;;;;5008529;28;20052;-70
2023/12/29 00:48:26;;;;;;;7.93;2.15;;;10.00;99.90;;;;;;5042161;28;20437;-71
2023/12/29 00:50:52;;;;;;;7.50;0.95;;;10.10;99.90;;;;;;5009154;28;20052;-71
2023/12/29 00:53:17;;;;;;;11.13;1.85;;;10.10;99.90;;;;;;5012880;28;20045;-72
2023/12/29 00:55:43;;;;;;;15.85;2.10;;;10.00;99.90;;;;;;5029946;28;20059;-73
2023/12/29 00:58:09;;;;;;;8.43;1.42;;;10.00;99.90;;;;;;5025405;28;20045;-72
2023/12/29 01:00:34;;;;;;;7.45;1.58;;;10.00;99.90;;;;;;5037539;28;20504;-72
2023/12/29 01:03:03;;;;;;;7.93;1.17;;;10.00;99.90;;;;;;5053462;28;20112;-73
2023/12/29 01:05:29;;;;;;;9.50;2.22;;;9.90;99.90;;;;;;5032809;28;20119;-72
2023/12/29 01:07:55;;;;;;;4.60;1.17;;;9.90;99.90;;;;;;5025504;28;20651;-73
2023/12/29 01:10:21;;;;;;;9.02;1.92;;;9.90;99.90;;;;;;5025056;28;20044;-72
2023/12/29 01:12:47;;;;;;;10.65;1.48;;;9.90;99.90;;;;;;5030123;28;20127;-72
2023/12/29 01:15:13;;;;;;;24.48;2.35;;;9.90;99.90;;;;;;5030863;28;21727;-72
2023/12/29 01:17:48;;;;;;;13.52;2.42;;;9.90;99.90;;;;;;5052702;28;20056;-72
2023/12/29 01:20:13;;;;;;;15.52;2.05;;;9.90;99.90;;;;;;5003844;28;20332;-72
2023/12/29 01:22:39;;;;;;;7.72;1.23;;;9.90;99.90;;;;;;5015176;28;20460;-72
2023/12/29 01:25:06;;;;;;;9.52;1.67;;;9.90;99.90;;;;;;5027940;28;20050;-72
2023/12/29 01:27:32;;;;;;;12.05;1.92;;;9.90;99.90;;;;;;5029673;28;20089;-71
2023/12/29 01:29:59;;;;;;;9.90;2.15;;;9.90;99.90;;;;;;5010396;28;20388;-72
2023/12/29 01:32:25;;;;;;;10.70;1.80;;;9.90;99.90;;;;;;5008257;28;20116;-72
2023/12/29 01:34:52;;;;;;;15.02;2.05;;;9.90;99.90;;;;;;5037711;28;20048;-71
2023/12/29 01:37:18;;;;;;;4.57;1.23;;;9.80;99.90;;;;;;4999481;28;20053;-71
2023/12/29 01:39:44;;;;;;;11.57;1.65;;;9.80;99.90;;;;;;5036604;28;20600;-72
2023/12/29 01:42:11;;;;;;;10.95;1.95;;;9.80;99.90;;;;;;5027146;28;20032;-71
2023/12/29 01:44:36;;;;;;;7.47;2.13;;;9.80;99.90;;;;;;5026804;28;20128;-71
2023/12/29 01:47:05;;;;;;;4.75;1.20;;;9.70;99.90;;;;;;5039721;28;20076;-71
2023/12/29 01:49:34;;;;;;;5.85;0.98;;;9.70;99.90;;;;;;5023682;28;20041;-71
2023/12/29 01:52:00;;;;;;;13.63;1.58;;;9.70;99.90;;;;;;5056464;28;20053;-71
2023/12/29 01:54:34;;;;;;;15.57;1.98;;;9.70;99.90;;;;;;5028291;28;20057;-71
2023/12/29 01:57:02;;;;;;;11.68;2.10;;;9.70;99.90;;;;;;5022682;28;20049;-72
2023/12/29 22:26:18;;;;;;;2.67;0.65;;;7.10;99.90;;;;;;5001471;28;20054;-96
2023/12/29 22:29:28;;;;;;;12.35;1.75;;;7.10;99.90;;;;;;4955333;28;20051;-96
2023/12/29 22:44:14;;;;;;;2.90;0.95;;;7.20;99.90;;;;;;5025540;28;20065;-96
2023/12/29 22:51:20;;;;;;;2.20;0.65;;;7.00;99.90;;;;;;4938190;29;20051;-96
